sensor_id;sensor_type;location;lat;lon;timestamp;P1;durP1;ratioP1;P2;durP2;ratioP2
35324;SDS011;35135;47.510;19.036;2024-01-25T00:00:16;4.15;;;2.72;;
35324;SDS011;35135;47.510;19.036;2024-01-25T00:02:42;5.00;;;2.70;;
35324;SDS011;35135;47.510;19.036;2024-01-25T00:05:08;4.35;;;2.20;;
35324;SDS011;35135;47.510;19.036;2024-01-25T00:07:34;4.22;;;2.50;;
35324;SDS011;35135;47.510;19.036;2024-01-25T00:10:00;4.40;;;2.70;;
35324;SDS011;35135;47.510;19.036;2024-01-25T00:12:26;3.80;;;2.30;;
35324;SDS011;35135;47.510;19.036;2024-01-25T00:14:52;3.75;;;2.30;;
35324;SDS011;35135;47.510;19.036;2024-01-25T00:17:18;5.45;;;2.55;;
35324;SDS011;35135;47.510;19.036;2024-01-25T00:19:44;4.75;;;2.38;;
35324;SDS011;35135;47.510;19.036;2024-01-25T00:22:09;4.53;;;2.58;;
35324;SDS011;35135;47.510;19.036;2024-01-25T00:24:35;5.18;;;2.42;;
35324;SDS011;35135;47.510;19.036;2024-01-25T00:27:01;3.65;;;2.40;;
35324;SDS011;35135;47.510;19.036;2024-01-25T00:29:29;4.78;;;2.35;;
35324;SDS011;35135;47.510;19.036;2024-01-25T00:31:56;3.95;;;2.40;;
35324;SDS011;35135;47.510;19.036;2024-01-25T00:34:22;4.22;;;2.25;;
35324;SDS011;35135;47.510;19.036;2024-01-25T00:36:49;3.60;;;2.30;;
35324;SDS011;35135;47.510;19.036;2024-01-25T00:39:15;5.28;;;2.35;;
35324;SDS011;35135;47.510;19.036;2024-01-25T00:41:41;3.65;;;2.55;;
35324;SDS011;35135;47.510;19.036;2024-01-25T00:44:09;3.83;;;2.05;;
35324;SDS011;35135;47.510;19.036;2024-01-25T00:46:35;3.78;;;2.10;;
35324;SDS011;35135;47.510;19.036;2024-01-25T00:49:01;4.03;;;2.35;;
35324;SDS011;35135;47.510;19.036;2024-01-25T00:51:27;4.05;;;2.55;;
35324;SDS011;35135;47.510;19.036;2024-01-25T00:53:53;3.53;;;1.90;;
35324;SDS011;35135;47.510;19.036;2024-01-25T00:56:19;5.28;;;2.42;;
35324;SDS011;35135;47.510;19.036;2024-01-25T00:58:45;4.47;;;2.25;;
35324;SDS011;35135;47.510;19.036;2024-01-25T01:01:11;4.38;;;2.38;;
35324;SDS011;35135;47.510;19.036;2024-01-25T01:03:36;4.05;;;2.13;;
35324;SDS011;35135;47.510;19.036;2024-01-25T01:06:02;5.00;;;2.05;;
35324;SDS011;35135;47.510;19.036;2024-01-25T01:08:28;4.28;;;2.13;;
35324;SDS011;35135;47.510;19.036;2024-01-25T01:10:54;3.63;;;2.35;;
35324;SDS011;35135;47.510;19.036;2024-01-25T01:13:20;4.25;;;2.20;;
35324;SDS011;35135;47.510;19.036;2024-01-25T01:15:46;4.60;;;2.40;;
35324;SDS011;35135;47.510;19.036;2024-01-25T01:18:11;4.53;;;1.90;;
35324;SDS011;35135;47.510;19.036;2024-01-25T01:20:37;3.63;;;2.25;;
35324;SDS011;35135;47.510;19.036;2024-01-25T01:23:03;4.97;;;2.47;;
35324;SDS011;35135;47.510;19.036;2024-01-25T01:25:28;4.85;;;2.28;;
35324;SDS011;35135;47.510;19.036;2024-01-25T01:27:54;4.25;;;2.03;;
35324;SDS011;35135;47.510;19.036;2024-01-25T01:30:20;4.72;;;2.22;;
35324;SDS011;35135;47.510;19.036;2024-01-25T01:32:46;5.40;;;2.47;;
35324;SDS011;35135;47.510;19.036;2024-01-25T01:35:11;5.00;;;2.38;;
35324;SDS011;35135;47.510;19.036;2024-01-25T01:37:37;4.15;;;2.08;;
35324;SDS011;35135;47.510;19.036;2024-01-25T01:40:03;4.57;;;2.10;;
35324;SDS011;35135;47.510;19.036;2024-01-25T01:42:30;3.13;;;2.08;;
35324;SDS011;35135;47.510;19.036;2024-01-25T01:44:56;4.00;;;2.10;;
35324;SDS011;35135;47.510;19.036;2024-01-25T01:47:22;3.65;;;1.88;;
35324;SDS011;35135;47.510;19.036;2024-01-25T01:49:47;3.80;;;1.77;;
35324;SDS011;35135;47.510;19.036;2024-01-25T01:52:13;3.70;;;1.80;;
35324;SDS011;35135;47.510;19.036;2024-01-25T01:54:39;4.05;;;2.10;;
35324;SDS011;35135;47.510;19.036;2024-01-25T01:57:06;3.88;;;2.00;;
35324;SDS011;35135;47.510;19.036;2024-01-25T01:59:33;3.83;;;2.05;;
35324;SDS011;35135;47.510;19.036;2024-01-25T02:01:58;4.38;;;1.88;;
35324;SDS011;35135;47.510;19.036;2024-01-25T02:04:24;2.83;;;1.73;;
35324;SDS011;35135;47.510;19.036;2024-01-25T02:06:50;4.28;;;1.77;;
35324;SDS011;35135;47.510;19.036;2024-01-25T02:09:15;6.63;;;2.20;;
35324;SDS011;35135;47.510;19.036;2024-01-25T02:11:41;4.78;;;2.05;;
35324;SDS011;35135;47.510;19.036;2024-01-25T02:14:07;3.85;;;1.85;;
35324;SDS011;35135;47.510;19.036;2024-01-25T02:16:36;3.80;;;2.08;;
35324;SDS011;35135;47.510;19.036;2024-01-25T02:19:02;4.35;;;2.40;;
35324;SDS011;35135;47.510;19.036;2024-01-25T02:21:28;3.97;;;2.13;;
35324;SDS011;35135;47.510;19.036;2024-01-25T02:23:54;4.00;;;2.00;;
35324;SDS011;35135;47.510;19.036;2024-01-25T02:26:19;3.70;;;1.83;;
35324;SDS011;35135;47.510;19.036;2024-01-25T02:28:45;4.78;;;2.05;;
35324;SDS011;35135;47.510;19.036;2024-01-25T02:31:11;4.47;;;2.10;;
35324;SDS011;35135;47.510;19.036;2024-01-25T02:33:36;3.30;;;1.60;;
35324;SDS011;35135;47.510;19.036;2024-01-25T02:36:02;4.15;;;1.95;;
35324;SDS011;35135;47.510;19.036;2024-01-25T02:38:28;5.78;;;1.95;;
35324;SDS011;35135;47.510;19.036;2024-01-25T02:40:53;4.30;;;1.67;;
35324;SDS011;35135;47.510;19.036;2024-01-25T02:43:19;4.93;;;2.10;;
35324;SDS011;35135;47.510;19.036;2024-01-25T02:45:45;3.40;;;1.60;;
35324;SDS011;35135;47.510;19.036;2024-01-25T02:48:12;4.05;;;2.13;;
35324;SDS011;35135;47.510;19.036;2024-01-25T02:50:38;4.25;;;1.90;;
35324;SDS011;35135;47.510;19.036;2024-01-25T02:53:04;5.03;;;1.65;;
35324;SDS011;35135;47.510;19.036;2024-01-25T02:55:30;4.43;;;2.00;;
35324;SDS011;35135;47.510;19.036;2024-01-25T02:57:56;5.38;;;2.10;;
35324;SDS011;35135;47.510;19.036;2024-01-25T03:00:22;4.88;;;1.90;;
35324;SDS011;35135;47.510;19.036;2024-01-25T03:02:47;4.68;;;2.08;;
35324;SDS011;35135;47.510;19.036;2024-01-25T03:05:13;4.32;;;1.70;;
35324;SDS011;35135;47.510;19.036;2024-01-25T03:07:39;4.35;;;1.80;;
35324;SDS011;35135;47.510;19.036;2024-01-25T03:10:04;3.72;;;1.70;;
35324;SDS011;35135;47.510;19.036;2024-01-25T03:12:30;4.68;;;1.83;;
35324;SDS011;35135;47.510;19.036;2024-01-25T03:14:56;5.57;;;2.10;;
35324;SDS011;35135;47.510;19.036;2024-01-25T03:17:22;4.93;;;2.50;;
35324;SDS011;35135;47.510;19.036;2024-01-25T03:19:47;4.53;;;1.90;;
35324;SDS011;35135;47.510;19.036;2024-01-25T03:22:14;3.80;;;1.90;;
35324;SDS011;35135;47.510;19.036;2024-01-25T03:24:40;3.67;;;1.85;;
35324;SDS011;35135;47.510;19.036;2024-01-25T03:27:05;3.78;;;1.83;;
35324;SDS011;35135;47.510;19.036;2024-01-25T03:32:06;5.53;;;1.77;;
35324;SDS011;35135;47.510;19.036;2024-01-25T03:34:31;3.22;;;1.70;;
35324;SDS011;35135;47.510;19.036;2024-01-25T03:36:57;3.95;;;1.70;;
35324;SDS011;35135;47.510;19.036;2024-01-25T03:39:23;5.32;;;1.65;;
35324;SDS011;35135;47.510;19.036;2024-01-25T03:41:49;4.95;;;1.70;;
35324;SDS011;35135;47.510;19.036;2024-01-25T03:44:14;4.82;;;1.95;;
35324;SDS011;35135;47.510;19.036;2024-01-25T03:46:40;6.18;;;1.80;;
35324;SDS011;35135;47.510;19.036;2024-01-25T03:49:06;4.47;;;1.60;;
35324;SDS011;35135;47.510;19.036;2024-01-25T03:51:31;5.47;;;2.15;;
35324;SDS011;35135;47.510;19.036;2024-01-25T03:53:57;5.43;;;2.00;;
35324;SDS011;35135;47.510;19.036;2024-01-25T03:56:23;2.47;;;1.35;;
35324;SDS011;35135;47.510;19.036;2024-01-25T03:58:50;4.30;;;1.70;;
35324;SDS011;35135;47.510;19.036;2024-01-25T04:01:16;4.35;;;1.60;;
35324;SDS011;35135;47.510;19.036;2024-01-25T04:03:42;4.50;;;1.90;;
35324;SDS011;35135;47.510;19.036;2024-01-25T04:06:08;3.55;;;1.92;;
35324;SDS011;35135;47.510;19.036;2024-01-25T04:08:33;4.15;;;1.50;;
35324;SDS011;35135;47.510;19.036;2024-01-25T04:10:59;6.68;;;1.80;;
35324;SDS011;35135;47.510;19.036;2024-01-25T04:13:25;8.13;;;2.47;;
35324;SDS011;35135;47.510;19.036;2024-01-25T04:15:50;11.07;;;2.35;;
35324;SDS011;35135;47.510;19.036;2024-01-25T04:18:16;9.93;;;2.25;;
35324;SDS011;35135;47.510;19.036;2024-01-25T04:20:43;7.03;;;2.40;;
35324;SDS011;35135;47.510;19.036;2024-01-25T04:23:09;13.90;;;2.90;;
35324;SDS011;35135;47.510;19.036;2024-01-25T04:25:34;10.77;;;2.55;;
35324;SDS011;35135;47.510;19.036;2024-01-25T04:28:01;12.13;;;2.72;;
35324;SDS011;35135;47.510;19.036;2024-01-25T04:30:27;11.80;;;3.40;;
35324;SDS011;35135;47.510;19.036;2024-01-25T04:32:52;10.10;;;3.03;;
35324;SDS011;35135;47.510;19.036;2024-01-25T04:35:18;14.18;;;2.80;;
35324;SDS011;35135;47.510;19.036;2024-01-25T04:37:44;13.10;;;2.92;;
35324;SDS011;35135;47.510;19.036;2024-01-25T04:40:09;9.32;;;4.20;;
35324;SDS011;35135;47.510;19.036;2024-01-25T04:42:36;8.85;;;3.30;;
35324;SDS011;35135;47.510;19.036;2024-01-25T04:45:02;11.55;;;3.35;;
35324;SDS011;35135;47.510;19.036;2024-01-25T04:47:28;12.95;;;4.00;;
35324;SDS011;35135;47.510;19.036;2024-01-25T04:49:53;10.80;;;3.20;;
35324;SDS011;35135;47.510;19.036;2024-01-25T04:52:19;10.60;;;3.50;;
35324;SDS011;35135;47.510;19.036;2024-01-25T04:54:45;7.40;;;3.08;;
35324;SDS011;35135;47.510;19.036;2024-01-25T04:57:10;11.02;;;2.97;;
35324;SDS011;35135;47.510;19.036;2024-01-25T04:59:36;8.80;;;2.80;;
35324;SDS011;35135;47.510;19.036;2024-01-25T05:02:02;11.65;;;2.90;;
35324;SDS011;35135;47.510;19.036;2024-01-25T05:04:28;13.95;;;3.60;;
35324;SDS011;35135;47.510;19.036;2024-01-25T05:06:55;15.13;;;3.22;;
35324;SDS011;35135;47.510;19.036;2024-01-25T05:09:21;9.90;;;3.03;;
35324;SDS011;35135;47.510;19.036;2024-01-25T05:11:47;9.07;;;3.33;;
35324;SDS011;35135;47.510;19.036;2024-01-25T05:14:12;9.43;;;2.80;;
35324;SDS011;35135;47.510;19.036;2024-01-25T05:16:38;9.68;;;2.72;;
35324;SDS011;35135;47.510;19.036;2024-01-25T05:19:04;12.20;;;3.03;;
35324;SDS011;35135;47.510;19.036;2024-01-25T05:21:29;11.48;;;2.80;;
35324;SDS011;35135;47.510;19.036;2024-01-25T05:23:55;11.75;;;3.35;;
35324;SDS011;35135;47.510;19.036;2024-01-25T05:26:21;8.40;;;2.47;;
35324;SDS011;35135;47.510;19.036;2024-01-25T05:28:47;7.57;;;3.30;;
35324;SDS011;35135;47.510;19.036;2024-01-25T05:31:12;7.57;;;2.63;;
35324;SDS011;35135;47.510;19.036;2024-01-25T05:33:39;5.93;;;2.50;;
35324;SDS011;35135;47.510;19.036;2024-01-25T05:36:05;8.15;;;2.33;;
35324;SDS011;35135;47.510;19.036;2024-01-25T05:38:33;6.95;;;2.30;;
35324;SDS011;35135;47.510;19.036;2024-01-25T05:40:59;7.35;;;2.15;;
35324;SDS011;35135;47.510;19.036;2024-01-25T05:43:25;7.05;;;2.47;;
35324;SDS011;35135;47.510;19.036;2024-01-25T05:45:51;6.50;;;2.80;;
35324;SDS011;35135;47.510;19.036;2024-01-25T05:48:16;6.07;;;2.38;;
35324;SDS011;35135;47.510;19.036;2024-01-25T05:50:42;7.40;;;2.63;;
35324;SDS011;35135;47.510;19.036;2024-01-25T05:53:08;7.75;;;2.33;;
35324;SDS011;35135;47.510;19.036;2024-01-25T05:55:34;6.80;;;2.25;;
35324;SDS011;35135;47.510;19.036;2024-01-25T05:57:59;6.07;;;1.90;;
35324;SDS011;35135;47.510;19.036;2024-01-25T06:00:25;6.35;;;2.10;;
35324;SDS011;35135;47.510;19.036;2024-01-25T06:02:51;5.82;;;1.73;;
35324;SDS011;35135;47.510;19.036;2024-01-25T06:05:16;5.63;;;2.08;;
35324;SDS011;35135;47.510;19.036;2024-01-25T06:07:43;5.45;;;2.35;;
35324;SDS011;35135;47.510;19.036;2024-01-25T06:10:09;8.82;;;2.40;;
35324;SDS011;35135;47.510;19.036;2024-01-25T06:12:35;5.43;;;2.20;;
35324;SDS011;35135;47.510;19.036;2024-01-25T06:15:00;6.18;;;2.28;;
35324;SDS011;35135;47.510;19.036;2024-01-25T06:17:26;4.95;;;1.85;;
35324;SDS011;35135;47.510;19.036;2024-01-25T06:19:52;5.25;;;2.28;;
35324;SDS011;35135;47.510;19.036;2024-01-25T06:22:18;4.32;;;2.00;;
35324;SDS011;35135;47.510;19.036;2024-01-25T06:24:43;6.72;;;2.45;;
35324;SDS011;35135;47.510;19.036;2024-01-25T06:27:09;6.18;;;1.98;;
35324;SDS011;35135;47.510;19.036;2024-01-25T06:29:35;5.57;;;2.30;;
35324;SDS011;35135;47.510;19.036;2024-01-25T06:32:01;6.72;;;2.35;;
35324;SDS011;35135;47.510;19.036;2024-01-25T06:34:27;3.95;;;1.60;;
35324;SDS011;35135;47.510;19.036;2024-01-25T06:36:53;4.68;;;2.05;;
35324;SDS011;35135;47.510;19.036;2024-01-25T06:39:18;4.80;;;1.92;;
35324;SDS011;35135;47.510;19.036;2024-01-25T06:41:44;3.90;;;1.85;;
35324;SDS011;35135;47.510;19.036;2024-01-25T06:44:10;3.92;;;1.63;;
35324;SDS011;35135;47.510;19.036;2024-01-25T06:46:36;5.82;;;1.90;;
35324;SDS011;35135;47.510;19.036;2024-01-25T06:49:01;7.25;;;2.08;;
35324;SDS011;35135;47.510;19.036;2024-01-25T06:51:28;4.72;;;1.90;;
35324;SDS011;35135;47.510;19.036;2024-01-25T06:53:53;4.72;;;2.00;;
35324;SDS011;35135;47.510;19.036;2024-01-25T06:56:19;4.38;;;1.95;;
35324;SDS011;35135;47.510;19.036;2024-01-25T06:58:45;4.10;;;1.63;;
35324;SDS011;35135;47.510;19.036;2024-01-25T07:01:10;5.22;;;2.03;;
35324;SDS011;35135;47.510;19.036;2024-01-25T07:03:36;4.20;;;1.83;;
35324;SDS011;35135;47.510;19.036;2024-01-25T07:06:02;7.05;;;1.77;;
35324;SDS011;35135;47.510;19.036;2024-01-25T07:08:29;4.90;;;2.00;;
35324;SDS011;35135;47.510;19.036;2024-01-25T07:10:54;4.22;;;1.85;;
35324;SDS011;35135;47.510;19.036;2024-01-25T07:13:21;3.95;;;1.92;;
35324;SDS011;35135;47.510;19.036;2024-01-25T07:15:47;5.60;;;1.60;;
35324;SDS011;35135;47.510;19.036;2024-01-25T07:18:12;3.63;;;1.67;;
35324;SDS011;35135;47.510;19.036;2024-01-25T07:20:38;4.78;;;2.05;;
35324;SDS011;35135;47.510;19.036;2024-01-25T07:23:04;4.68;;;1.95;;
35324;SDS011;35135;47.510;19.036;2024-01-25T07:25:29;4.97;;;1.90;;
35324;SDS011;35135;47.510;19.036;2024-01-25T07:27:55;4.15;;;2.08;;
35324;SDS011;35135;47.510;19.036;2024-01-25T07:30:21;5.57;;;1.75;;
35324;SDS011;35135;47.510;19.036;2024-01-25T07:32:47;3.35;;;1.75;;
35324;SDS011;35135;47.510;19.036;2024-01-25T07:35:14;4.03;;;2.10;;
35324;SDS011;35135;47.510;19.036;2024-01-25T07:37:40;5.35;;;2.10;;
35324;SDS011;35135;47.510;19.036;2024-01-25T07:40:06;4.15;;;1.70;;
35324;SDS011;35135;47.510;19.036;2024-01-25T07:42:35;3.90;;;1.85;;
35324;SDS011;35135;47.510;19.036;2024-01-25T07:45:01;4.07;;;1.80;;
35324;SDS011;35135;47.510;19.036;2024-01-25T07:47:27;4.38;;;1.73;;
35324;SDS011;35135;47.510;19.036;2024-01-25T07:49:52;5.13;;;1.98;;
35324;SDS011;35135;47.510;19.036;2024-01-25T07:52:18;4.38;;;1.80;;
35324;SDS011;35135;47.510;19.036;2024-01-25T07:54:44;5.30;;;1.90;;
35324;SDS011;35135;47.510;19.036;2024-01-25T07:57:09;4.47;;;1.75;;
35324;SDS011;35135;47.510;19.036;2024-01-25T07:59:35;5.30;;;2.00;;
35324;SDS011;35135;47.510;19.036;2024-01-25T08:02:01;4.20;;;1.50;;
35324;SDS011;35135;47.510;19.036;2024-01-25T08:04:27;5.63;;;2.03;;
35324;SDS011;35135;47.510;19.036;2024-01-25T08:06:52;3.88;;;1.85;;
35324;SDS011;35135;47.510;19.036;2024-01-25T08:09:18;5.00;;;2.17;;
35324;SDS011;35135;47.510;19.036;2024-01-25T08:11:44;3.85;;;1.73;;
35324;SDS011;35135;47.510;19.036;2024-01-25T08:14:10;3.65;;;1.92;;
35324;SDS011;35135;47.510;19.036;2024-01-25T08:16:36;4.05;;;2.10;;
35324;SDS011;35135;47.510;19.036;2024-01-25T08:19:02;4.90;;;2.00;;
35324;SDS011;35135;47.510;19.036;2024-01-25T08:21:28;4.28;;;1.80;;
35324;SDS011;35135;47.510;19.036;2024-01-25T08:23:54;5.05;;;1.80;;
35324;SDS011;35135;47.510;19.036;2024-01-25T08:26:19;4.20;;;1.63;;
35324;SDS011;35135;47.510;19.036;2024-01-25T08:28:45;5.07;;;1.70;;
35324;SDS011;35135;47.510;19.036;2024-01-25T08:31:11;4.45;;;1.77;;
35324;SDS011;35135;47.510;19.036;2024-01-25T08:33:39;4.72;;;1.70;;
35324;SDS011;35135;47.510;19.036;2024-01-25T08:36:10;4.00;;;1.70;;
35324;SDS011;35135;47.510;19.036;2024-01-25T08:38:36;4.05;;;1.88;;
35324;SDS011;35135;47.510;19.036;2024-01-25T08:41:02;4.45;;;1.67;;
35324;SDS011;35135;47.510;19.036;2024-01-25T08:43:27;4.60;;;2.10;;
35324;SDS011;35135;47.510;19.036;2024-01-25T08:45:53;4.70;;;1.92;;
35324;SDS011;35135;47.510;19.036;2024-01-25T08:48:19;5.40;;;2.10;;
35324;SDS011;35135;47.510;19.036;2024-01-25T08:50:45;7.03;;;2.47;;
35324;SDS011;35135;47.510;19.036;2024-01-25T09:07:56;4.18;;;1.95;;
35324;SDS011;35135;47.510;19.036;2024-01-25T09:10:21;4.15;;;1.90;;
35324;SDS011;35135;47.510;19.036;2024-01-25T09:12:47;5.90;;;2.08;;
35324;SDS011;35135;47.510;19.036;2024-01-25T09:15:13;3.90;;;1.67;;
35324;SDS011;35135;47.510;19.036;2024-01-25T09:17:38;4.60;;;2.10;;
35324;SDS011;35135;47.510;19.036;2024-01-25T09:20:05;4.65;;;2.00;;
35324;SDS011;35135;47.510;19.036;2024-01-25T09:22:32;4.95;;;1.92;;
35324;SDS011;35135;47.510;19.036;2024-01-25T09:24:57;4.75;;;1.95;;
35324;SDS011;35135;47.510;19.036;2024-01-25T09:27:23;4.95;;;1.83;;
35324;SDS011;35135;47.510;19.036;2024-01-25T09:29:48;4.93;;;1.92;;
35324;SDS011;35135;47.510;19.036;2024-01-25T09:32:14;6.05;;;1.98;;
35324;SDS011;35135;47.510;19.036;2024-01-25T09:34:40;4.13;;;1.80;;
35324;SDS011;35135;47.510;19.036;2024-01-25T09:37:05;5.38;;;1.92;;
35324;SDS011;35135;47.510;19.036;2024-01-25T09:39:31;4.18;;;1.80;;
35324;SDS011;35135;47.510;19.036;2024-01-25T09:41:58;6.15;;;2.17;;
35324;SDS011;35135;47.510;19.036;2024-01-25T09:44:23;4.90;;;1.95;;
35324;SDS011;35135;47.510;19.036;2024-01-25T09:46:51;4.43;;;1.88;;
35324;SDS011;35135;47.510;19.036;2024-01-25T09:49:16;5.47;;;2.17;;
35324;SDS011;35135;47.510;19.036;2024-01-25T09:51:43;4.28;;;1.90;;
35324;SDS011;35135;47.510;19.036;2024-01-25T09:54:09;4.15;;;1.85;;
35324;SDS011;35135;47.510;19.036;2024-01-25T09:56:35;3.58;;;1.65;;
35324;SDS011;35135;47.510;19.036;2024-01-25T09:59:01;4.28;;;1.90;;
35324;SDS011;35135;47.510;19.036;2024-01-25T10:01:28;5.78;;;2.35;;
35324;SDS011;35135;47.510;19.036;2024-01-25T10:03:54;4.05;;;1.88;;
35324;SDS011;35135;47.510;19.036;2024-01-25T10:06:23;4.47;;;1.80;;
35324;SDS011;35135;47.510;19.036;2024-01-25T10:08:49;4.85;;;1.90;;
35324;SDS011;35135;47.510;19.036;2024-01-25T10:11:15;5.20;;;1.90;;
35324;SDS011;35135;47.510;19.036;2024-01-25T10:13:41;3.80;;;1.60;;
35324;SDS011;35135;47.510;19.036;2024-01-25T10:16:11;4.47;;;1.92;;
35324;SDS011;35135;47.510;19.036;2024-01-25T10:21:08;4.30;;;1.80;;
35324;SDS011;35135;47.510;19.036;2024-01-25T10:23:34;3.78;;;1.73;;
35324;SDS011;35135;47.510;19.036;2024-01-25T10:26:00;5.93;;;2.60;;
35324;SDS011;35135;47.510;19.036;2024-01-25T10:28:27;5.25;;;2.25;;
35324;SDS011;35135;47.510;19.036;2024-01-25T10:30:55;5.60;;;2.13;;
35324;SDS011;35135;47.510;19.036;2024-01-25T10:33:22;4.78;;;1.83;;
35324;SDS011;35135;47.510;19.036;2024-01-25T10:35:49;3.92;;;1.70;;
35324;SDS011;35135;47.510;19.036;2024-01-25T10:38:17;3.97;;;1.80;;
35324;SDS011;35135;47.510;19.036;2024-01-25T10:40:43;8.02;;;2.20;;
35324;SDS011;35135;47.510;19.036;2024-01-25T10:43:11;5.55;;;1.95;;
35324;SDS011;35135;47.510;19.036;2024-01-25T10:45:37;3.95;;;1.73;;
35324;SDS011;35135;47.510;19.036;2024-01-25T10:48:03;4.10;;;1.83;;
35324;SDS011;35135;47.510;19.036;2024-01-25T10:50:29;4.40;;;1.98;;
35324;SDS011;35135;47.510;19.036;2024-01-25T10:52:55;5.25;;;1.75;;
35324;SDS011;35135;47.510;19.036;2024-01-25T10:55:21;3.17;;;1.60;;
35324;SDS011;35135;47.510;19.036;2024-01-25T10:57:47;4.47;;;1.67;;
35324;SDS011;35135;47.510;19.036;2024-01-25T11:00:14;5.32;;;1.98;;
35324;SDS011;35135;47.510;19.036;2024-01-25T11:02:41;5.32;;;1.83;;
35324;SDS011;35135;47.510;19.036;2024-01-25T11:05:09;4.75;;;1.60;;
35324;SDS011;35135;47.510;19.036;2024-01-25T11:07:47;5.15;;;1.85;;
35324;SDS011;35135;47.510;19.036;2024-01-25T11:10:16;4.03;;;1.90;;
35324;SDS011;35135;47.510;19.036;2024-01-25T11:12:54;5.45;;;1.90;;
35324;SDS011;35135;47.510;19.036;2024-01-25T11:18:01;6.35;;;2.00;;
35324;SDS011;35135;47.510;19.036;2024-01-25T11:20:29;4.57;;;1.98;;
35324;SDS011;35135;47.510;19.036;2024-01-25T11:22:58;4.60;;;2.03;;
35324;SDS011;35135;47.510;19.036;2024-01-25T11:25:32;5.70;;;2.05;;
35324;SDS011;35135;47.510;19.036;2024-01-25T11:28:00;5.45;;;2.00;;
35324;SDS011;35135;47.510;19.036;2024-01-25T11:30:28;4.70;;;1.90;;
35324;SDS011;35135;47.510;19.036;2024-01-25T11:32:55;6.10;;;2.22;;
35324;SDS011;35135;47.510;19.036;2024-01-25T11:35:21;5.15;;;1.92;;
35324;SDS011;35135;47.510;19.036;2024-01-25T11:37:47;6.72;;;1.90;;
35324;SDS011;35135;47.510;19.036;2024-01-25T11:40:15;4.60;;;2.00;;
35324;SDS011;35135;47.510;19.036;2024-01-25T11:42:44;4.88;;;1.70;;
35324;SDS011;35135;47.510;19.036;2024-01-25T11:45:13;5.70;;;2.03;;
35324;SDS011;35135;47.510;19.036;2024-01-25T11:47:40;5.30;;;2.00;;
35324;SDS011;35135;47.510;19.036;2024-01-25T11:50:07;5.03;;;2.15;;
35324;SDS011;35135;47.510;19.036;2024-01-25T11:52:35;4.95;;;1.52;;
35324;SDS011;35135;47.510;19.036;2024-01-25T11:55:02;5.22;;;2.10;;
35324;SDS011;35135;47.510;19.036;2024-01-25T11:57:29;5.50;;;1.80;;
35324;SDS011;35135;47.510;19.036;2024-01-25T11:59:56;6.80;;;2.00;;
35324;SDS011;35135;47.510;19.036;2024-01-25T12:02:22;5.93;;;1.83;;
35324;SDS011;35135;47.510;19.036;2024-01-25T12:04:49;4.53;;;1.73;;
35324;SDS011;35135;47.510;19.036;2024-01-25T12:07:15;4.57;;;2.10;;
35324;SDS011;35135;47.510;19.036;2024-01-25T12:09:41;5.40;;;2.03;;
35324;SDS011;35135;47.510;19.036;2024-01-25T12:12:09;5.13;;;1.88;;
35324;SDS011;35135;47.510;19.036;2024-01-25T12:14:35;3.67;;;1.63;;
35324;SDS011;35135;47.510;19.036;2024-01-25T12:17:02;5.93;;;2.30;;
35324;SDS011;35135;47.510;19.036;2024-01-25T12:19:29;4.38;;;1.80;;
35324;SDS011;35135;47.510;19.036;2024-01-25T12:21:55;5.22;;;2.17;;
35324;SDS011;35135;47.510;19.036;2024-01-25T12:24:21;3.55;;;1.75;;
35324;SDS011;35135;47.510;19.036;2024-01-25T12:26:47;5.05;;;1.83;;
35324;SDS011;35135;47.510;19.036;2024-01-25T12:29:13;4.05;;;1.98;;
35324;SDS011;35135;47.510;19.036;2024-01-25T12:31:39;3.65;;;1.95;;
35324;SDS011;35135;47.510;19.036;2024-01-25T12:34:10;4.78;;;1.88;;
35324;SDS011;35135;47.510;19.036;2024-01-25T12:36:42;5.03;;;1.90;;
35324;SDS011;35135;47.510;19.036;2024-01-25T12:39:08;4.13;;;1.80;;
35324;SDS011;35135;47.510;19.036;2024-01-25T12:41:33;3.92;;;1.77;;
35324;SDS011;35135;47.510;19.036;2024-01-25T12:44:00;4.18;;;1.73;;
35324;SDS011;35135;47.510;19.036;2024-01-25T12:46:26;3.35;;;1.70;;
35324;SDS011;35135;47.510;19.036;2024-01-25T12:48:52;4.43;;;1.90;;
35324;SDS011;35135;47.510;19.036;2024-01-25T12:51:20;4.22;;;1.90;;
35324;SDS011;35135;47.510;19.036;2024-01-25T12:53:47;6.07;;;1.95;;
35324;SDS011;35135;47.510;19.036;2024-01-25T12:56:14;5.30;;;1.98;;
35324;SDS011;35135;47.510;19.036;2024-01-25T12:58:39;3.67;;;1.80;;
35324;SDS011;35135;47.510;19.036;2024-01-25T13:01:05;3.83;;;1.58;;
35324;SDS011;35135;47.510;19.036;2024-01-25T13:03:31;4.55;;;2.08;;
35324;SDS011;35135;47.510;19.036;2024-01-25T13:05:57;4.25;;;1.65;;
35324;SDS011;35135;47.510;19.036;2024-01-25T13:08:23;4.75;;;2.15;;
35324;SDS011;35135;47.510;19.036;2024-01-25T13:10:49;4.55;;;1.90;;
35324;SDS011;35135;47.510;19.036;2024-01-25T13:13:14;4.35;;;1.80;;
35324;SDS011;35135;47.510;19.036;2024-01-25T13:15:40;3.65;;;1.55;;
35324;SDS011;35135;47.510;19.036;2024-01-25T13:18:05;3.05;;;1.58;;
35324;SDS011;35135;47.510;19.036;2024-01-25T13:20:31;4.38;;;1.83;;
35324;SDS011;35135;47.510;19.036;2024-01-25T13:22:57;4.20;;;1.45;;
35324;SDS011;35135;47.510;19.036;2024-01-25T13:25:22;4.45;;;1.90;;
35324;SDS011;35135;47.510;19.036;2024-01-25T13:27:48;4.85;;;2.20;;
35324;SDS011;35135;47.510;19.036;2024-01-25T13:30:14;4.88;;;2.03;;
35324;SDS011;35135;47.510;19.036;2024-01-25T13:32:39;6.10;;;1.98;;
35324;SDS011;35135;47.510;19.036;2024-01-25T13:35:05;5.43;;;2.03;;
35324;SDS011;35135;47.510;19.036;2024-01-25T13:37:32;3.65;;;1.63;;
35324;SDS011;35135;47.510;19.036;2024-01-25T13:39:57;3.90;;;1.55;;
35324;SDS011;35135;47.510;19.036;2024-01-25T13:42:23;4.47;;;1.85;;
35324;SDS011;35135;47.510;19.036;2024-01-25T13:44:49;4.18;;;1.38;;
35324;SDS011;35135;47.510;19.036;2024-01-25T13:47:15;3.63;;;1.85;;
35324;SDS011;35135;47.510;19.036;2024-01-25T13:49:40;3.97;;;1.83;;
35324;SDS011;35135;47.510;19.036;2024-01-25T13:52:06;3.90;;;1.77;;
35324;SDS011;35135;47.510;19.036;2024-01-25T13:54:32;4.32;;;1.67;;
35324;SDS011;35135;47.510;19.036;2024-01-25T13:56:57;5.28;;;2.10;;
35324;SDS011;35135;47.510;19.036;2024-01-25T13:59:23;3.72;;;1.55;;
35324;SDS011;35135;47.510;19.036;2024-01-25T14:01:50;3.53;;;1.55;;
35324;SDS011;35135;47.510;19.036;2024-01-25T14:04:16;3.35;;;1.60;;
35324;SDS011;35135;47.510;19.036;2024-01-25T14:06:42;4.05;;;1.98;;
35324;SDS011;35135;47.510;19.036;2024-01-25T14:09:08;2.97;;;1.58;;
35324;SDS011;35135;47.510;19.036;2024-01-25T14:11:34;5.40;;;1.88;;
35324;SDS011;35135;47.510;19.036;2024-01-25T14:14:00;4.60;;;1.83;;
35324;SDS011;35135;47.510;19.036;2024-01-25T14:16:26;5.35;;;1.80;;
35324;SDS011;35135;47.510;19.036;2024-01-25T14:18:51;5.32;;;1.92;;
35324;SDS011;35135;47.510;19.036;2024-01-25T14:21:17;5.70;;;2.13;;
35324;SDS011;35135;47.510;19.036;2024-01-25T14:23:46;4.40;;;1.77;;
35324;SDS011;35135;47.510;19.036;2024-01-25T14:26:11;5.05;;;1.98;;
35324;SDS011;35135;47.510;19.036;2024-01-25T14:28:37;5.00;;;1.80;;
35324;SDS011;35135;47.510;19.036;2024-01-25T14:31:03;4.85;;;1.92;;
35324;SDS011;35135;47.510;19.036;2024-01-25T14:33:29;3.85;;;1.80;;
35324;SDS011;35135;47.510;19.036;2024-01-25T14:35:54;3.97;;;1.60;;
35324;SDS011;35135;47.510;19.036;2024-01-25T14:38:20;4.38;;;1.60;;
35324;SDS011;35135;47.510;19.036;2024-01-25T14:40:46;4.38;;;1.70;;
35324;SDS011;35135;47.510;19.036;2024-01-25T14:43:11;5.43;;;1.80;;
35324;SDS011;35135;47.510;19.036;2024-01-25T14:45:37;4.80;;;2.20;;
35324;SDS011;35135;47.510;19.036;2024-01-25T14:48:03;4.43;;;1.65;;